Time;durP1;ratioP1;P1;durP2;ratioP2;P2;SDS_P1;SDS_P2;PMS_P1;PMS_P2;Temp;Humidity;BMP_temperature;BMP_pressure;BME280_temperature;BME280_humidity;BME280_pressure;Samples;Min_cycle;Max_cycle;Signal;HPM_P1;HPM_P2
2023/10/04 00:02:40;;;;;;;11.52;4.93;;;;;;;11.18;91.46;101161.47;10259285;28;20058;-77
2023/10/04 00:07:44;;;;;;;11.18;4.05;;;;;;;11.23;90.83;101151.25;10259545;28;20491;-79
2023/10/04 00:12:47;;;;;;;10.07;3.38;;;;;;;10.98;92.02;101160.16;10263841;28;20394;-79
2023/10/04 00:17:52;;;;;;;17.08;5.47;;;;;;;11.19;91.56;101160.47;10249917;28;20061;-80
2023/10/04 00:22:56;;;;;;;5.07;3.03;;;;;;;10.78;93.52;101165.13;10265734;28;20047;-80
2023/10/04 00:27:59;;;;;;;9.55;4.75;;;;;;;11.02;92.01;101165.19;10253244;28;20041;-79
2023/10/04 00:33:05;;;;;;;9.45;5.28;;;;;;;11.13;92.04;101160.94;10273511;28;20051;-80
2023/10/04 00:38:09;;;;;;;8.15;4.40;;;;;;;10.85;93.21;101176.28;10254788;28;20110;-80
2023/10/04 00:43:14;;;;;;;16.05;5.95;;;;;;;10.97;92.38;101180.81;10243411;28;20055;-81
2023/10/04 00:48:23;;;;;;;8.65;4.43;;;;;;;10.97;92.97;101171.88;10259111;28;20122;-80
2023/10/04 00:53:29;;;;;;;13.68;5.65;;;;;;;11.26;90.94;101176.06;10239118;28;20057;-79
2023/10/04 00:58:32;;;;;;;12.05;5.25;;;;;;;11.07;92.29;101194.47;10252937;28;20044;-79
2023/10/04 01:03:38;;;;;;;10.65;6.07;;;;;;;10.96;92.78;101199.72;10265572;28;20118;-79
2023/10/04 01:08:42;;;;;;;12.70;6.50;;;;;;;10.99;92.57;101205.75;10247738;28;20056;-81
2023/10/04 01:13:47;;;;;;;13.80;6.75;;;;;;;11.18;90.98;101204.50;10276022;28;20044;-80
2023/10/04 01:18:51;;;;;;;11.20;6.47;;;;;;;10.84;93.52;101210.38;10268666;28;20050;-80
2023/10/04 01:23:56;;;;;;;18.80;6.82;;;;;;;11.14;91.78;101211.06;10267498;28;20043;-80
2023/10/04 01:29:03;;;;;;;9.98;6.30;;;;;;;10.93;93.06;101213.38;10238014;28;20099;-80
2023/10/04 01:34:07;;;;;;;13.25;6.25;;;;;;;10.72;94.34;101223.78;10263340;28;20070;-78
2023/10/04 01:39:18;;;;;;;13.00;6.63;;;;;;;11.05;92.08;101212.50;10261684;28;20043;-79
2023/10/04 01:44:21;;;;;;;11.57;6.30;;;;;;;11.04;91.95;101210.81;10260122;28;20485;-80
2023/10/04 01:49:24;;;;;;;14.18;5.93;;;;;;;11.09;91.39;101207.81;10229919;28;20051;-80
2023/10/04 01:54:29;;;;;;;11.30;5.45;;;;;;;10.91;92.33;101218.00;10232018;28;20062;-80
2023/10/04 01:59:32;;;;;;;12.52;5.07;;;;;;;11.01;91.39;101205.66;10236631;28;20051;-80
2023/10/04 02:04:36;;;;;;;10.13;5.72;;;;;;;11.21;90.82;101206.97;10256751;28;20078;-79
2023/10/04 02:09:40;;;;;;;13.15;5.05;;;;;;;10.94;92.05;101205.22;10238865;28;20066;-79
2023/10/04 02:14:44;;;;;;;15.25;6.07;;;;;;;10.77;93.29;101195.63;10252980;28;20054;-78
2023/10/04 02:19:47;;;;;;;13.75;4.80;;;;;;;10.79;92.75;101199.06;10240827;28;20062;-79
2023/10/04 02:24:51;;;;;;;12.93;4.97;;;;;;;10.92;91.70;101204.47;10243351;28;20051;-80
2023/10/04 02:29:54;;;;;;;11.00;5.20;;;;;;;10.88;92.97;101218.22;10234916;28;20042;-80
2023/10/04 02:34:59;;;;;;;12.65;5.40;;;;;;;10.88;92.92;101218.22;10234379;28;20989;-80
2023/10/04 02:40:14;;;;;;;13.23;5.35;;;;;;;10.97;92.35;101214.88;10232216;28;20423;-79
2023/10/04 02:45:19;;;;;;;9.18;4.53;;;;;;;10.95;92.55;101219.53;10236836;28;20055;-80
2023/10/04 02:50:24;;;;;;;9.10;5.07;;;;;;;11.00;92.26;101228.13;10231355;28;20081;-79
2023/10/04 02:55:31;;;;;;;7.22;4.10;;;;;;;10.96;92.34;101226.63;10255379;28;20048;-80
2023/10/04 03:00:44;;;;;;;6.25;3.63;;;;;;;10.78;93.31;101237.69;10234209;28;20054;-78
2023/10/04 03:05:49;;;;;;;8.52;4.35;;;;;;;10.88;92.70;101232.50;10242082;28;20078;-77
2023/10/04 03:10:56;;;;;;;9.93;5.07;;;;;;;10.76;93.74;101219.94;10235612;28;20040;-80
2023/10/04 03:16:03;;;;;;;11.55;5.75;;;;;;;10.63;94.95;101227.09;10235823;28;20505;-77
2023/10/04 03:21:13;;;;;;;11.52;4.63;;;;;;;11.04;91.98;101248.44;10229060;28;20054;-79
2023/10/04 03:26:20;;;;;;;11.32;4.38;;;;;;;10.75;94.27;101231.63;10244534;28;20069;-78
2023/10/04 03:31:28;;;;;;;10.30;5.53;;;;;;;10.61;94.45;101238.81;10243475;28;20514;-80
2023/10/04 03:36:39;;;;;;;8.30;5.43;;;;;;;10.86;93.59;101236.28;10237158;28;20530;-80
2023/10/04 03:41:47;;;;;;;13.98;5.57;;;;;;;11.04;92.86;101240.38;10242549;28;20051;-81
2023/10/04 03:46:51;;;;;;;17.95;5.18;;;;;;;10.77;93.87;101241.31;10239767;28;20083;-79
2023/10/04 03:51:57;;;;;;;13.70;5.47;;;;;;;10.87;93.42;101238.88;10238839;28;20484;-80
2023/10/04 03:57:06;;;;;;;15.38;5.65;;;;;;;11.18;91.88;101234.06;10245149;28;20109;-80
2023/10/04 04:02:11;;;;;;;16.77;5.20;;;;;;;10.69;94.87;101243.66;10241161;28;20048;-79
2023/10/04 04:07:14;;;;;;;11.43;5.90;;;;;;;10.88;94.12;101242.41;10238887;28;20058;-79
2023/10/04 04:12:18;;;;;;;16.45;6.82;;;;;;;10.86;93.84;101247.91;10257518;28;20150;-78
2023/10/04 04:17:22;;;;;;;11.93;6.03;;;;;;;10.87;94.00;101235.31;10239103;28;20043;-78
2023/10/04 04:22:27;;;;;;;10.68;5.22;;;;;;;11.01;92.13;101248.66;10237063;28;20051;-80
2023/10/04 04:27:32;;;;;;;14.73;6.00;;;;;;;11.05;92.86;101242.09;10239037;28;20151;-79
2023/10/04 04:32:36;;;;;;;11.32;6.18;;;;;;;11.19;92.16;101238.47;10232950;28;20051;-80
2023/10/04 04:37:40;;;;;;;12.05;5.35;;;;;;;11.05;92.86;101251.03;10247169;28;20039;-81
2023/10/04 04:42:47;;;;;;;14.93;6.57;;;;;;;10.76;95.17;101258.41;10267906;28;20063;-82
2023/10/04 04:47:51;;;;;;;14.48;6.65;;;;;;;11.03;92.87;101257.50;10253117;28;20043;-80
2023/10/04 04:52:55;;;;;;;13.70;7.22;;;;;;;10.83;94.02;101269.59;10252040;28;20047;-81
2023/10/04 04:57:59;;;;;;;16.08;6.20;;;;;;;10.97;93.41;101263.28;10245687;28;20047;-80
2023/10/04 05:03:04;;;;;;;11.93;6.43;;;;;;;10.88;94.68;101258.53;10233950;28;20473;-81
2023/10/04 05:08:07;;;;;;;17.75;7.03;;;;;;;10.91;94.10;101269.06;10264081;28;20134;-80
2023/10/04 05:13:18;;;;;;;16.50;6.95;;;;;;;11.12;92.75;101266.75;10258890;28;20070;-79
2023/10/04 05:18:22;;;;;;;17.30;6.68;;;;;;;10.89;93.91;101279.94;10254432;28;20043;-80
2023/10/04 05:23:26;;;;;;;14.77;5.82;;;;;;;10.82;94.55;101289.38;10257659;28;20499;-79
2023/10/04 05:28:31;;;;;;;19.92;7.95;;;;;;;10.42;97.82;101289.34;10258942;28;20047;-81
2023/10/04 05:33:35;;;;;;;19.75;9.02;;;;;;;10.74;95.59;101283.66;10249498;28;20525;-81
2023/10/04 05:38:38;;;;;;;19.40;8.90;;;;;;;10.72;94.83;101294.50;10253263;28;20469;-80
2023/10/04 05:43:43;;;;;;;20.13;9.18;;;;;;;10.88;94.88;101298.84;10241719;28;20554;-79
2023/10/04 05:48:46;;;;;;;20.25;7.85;;;;;;;10.81;95.20;101307.34;10239852;28;20051;-78
2023/10/04 05:53:51;;;;;;;19.88;9.25;;;;;;;10.76;95.55;101309.47;10254806;28;20058;-79
2023/10/04 05:58:55;;;;;;;22.65;9.50;;;;;;;10.93;93.98;101302.09;10254257;28;20106;-79
2023/10/04 06:03:59;;;;;;;22.05;8.25;;;;;;;10.93;94.58;101302.09;10244659;28;20051;-79
2023/10/04 06:09:03;;;;;;;19.58;9.05;;;;;;;10.96;94.52;101299.19;10250647;28;20032;-79
2023/10/04 06:14:08;;;;;;;22.50;9.00;;;;;;;10.78;94.80;101301.31;10256731;28;20051;-78
2023/10/04 06:19:11;;;;;;;17.73;7.78;;;;;;;11.11;93.95;101310.72;10254450;28;20063;-78
2023/10/04 06:24:31;;;;;;;21.60;8.90;;;;;;;11.27;92.68;101306.03;10250036;28;20039;-79
2023/10/04 06:29:36;;;;;;;27.50;8.63;;;;;;;11.34;92.21;101315.41;10246587;28;20039;-78
2023/10/04 06:34:39;;;;;;;26.60;9.95;;;;;;;11.52;91.24;101324.03;10227882;28;20044;-80
2023/10/04 06:39:42;;;;;;;21.67;9.05;;;;;;;11.53;91.64;101336.50;10262454;28;20043;-79
2023/10/04 06:44:47;;;;;;;23.13;8.10;;;;;;;11.43;91.88;101352.44;10245671;28;20070;-80
2023/10/04 06:49:50;;;;;;;17.15;8.13;;;;;;;11.26;92.69;101367.03;10234293;28;20055;-78
2023/10/04 06:54:53;;;;;;;19.02;8.27;;;;;;;11.57;92.49;101377.50;10249208;28;20054;-80
2023/10/04 06:59:59;;;;;;;21.00;9.00;;;;;;;11.45;92.18;101379.25;10243938;28;20050;-77
2023/10/04 07:05:03;;;;;;;17.17;7.20;;;;;;;11.58;92.08;101390.03;10263032;28;20665;-78
2023/10/04 07:10:09;;;;;;;17.63;7.18;;;;;;;11.68;91.40;101393.78;10254249;28;20047;-79
2023/10/04 07:15:14;;;;;;;19.55;9.98;;;;;;;11.42;93.87;101391.06;10257337;28;20518;-77
2023/10/04 07:20:19;;;;;;;15.77;8.82;;;;;;;11.57;91.88;101416.03;10267268;28;20074;-80
2023/10/04 07:25:22;;;;;;;17.33;8.07;;;;;;;11.50;94.09;101412.94;10284518;28;20118;-80
2023/10/04 07:30:26;;;;;;;19.52;8.35;;;;;;;12.05;90.51;101408.22;10268624;28;20126;-79
2023/10/04 07:35:32;;;;;;;15.20;8.52;;;;;;;12.27;88.98;101406.69;10267682;28;20050;-80
2023/10/04 07:40:37;;;;;;;22.33;10.32;;;;;;;12.31;88.25;101409.09;10262475;28;20495;-80
2023/10/04 07:45:41;;;;;;;20.60;9.10;;;;;;;12.29;87.42;101420.94;10238949;28;20102;-79
2023/10/04 07:50:46;;;;;;;14.25;8.75;;;;;;;12.36;87.18;101432.97;10253342;28;20417;-79
2023/10/04 07:55:49;;;;;;;20.42;8.38;;;;;;;12.23;88.02;101422.22;10298485;28;20066;-78
2023/10/04 08:00:54;;;;;;;18.67;10.23;;;;;;;12.69;86.50;101420.72;10289255;28;20050;-80
2023/10/04 08:05:57;;;;;;;20.10;9.32;;;;;;;12.70;84.66;101408.94;10275922;28;20797;-81
2023/10/04 08:11:00;;;;;;;17.90;8.38;;;;;;;13.02;83.86;101420.91;10289563;28;20023;-80
2023/10/04 08:16:05;;;;;;;16.65;7.40;;;;;;;13.35;82.36;101411.22;10314529;28;20041;-79
2023/10/04 08:26:40;;;;;;;8.60;5.05;;;;;;;13.05;83.11;101427.91;10682938;23;20194;-78
2023/10/04 08:31:44;;;;;;;16.50;7.28;;;;;;;13.74;81.12;101429.88;10258248;28;20054;-78
2023/10/04 08:36:47;;;;;;;17.27;6.78;;;;;;;12.59;86.02;101434.03;10266193;28;20046;-78
2023/10/04 08:41:50;;;;;;;12.90;6.45;;;;;;;13.58;82.56;101428.38;10265939;28;20058;-78
2023/10/04 08:46:57;;;;;;;10.82;5.70;;;;;;;13.18;83.86;101449.44;10253475;28;20057;-77
2023/10/04 08:52:02;;;;;;;12.32;6.50;;;;;;;13.75;80.12;101434.31;10249307;28;20047;-78
2023/10/04 08:57:13;;;;;;;17.48;6.80;;;;;;;14.32;78.35;101426.16;10249353;28;21297;-77
2023/10/04 09:02:20;;;;;;;12.35;6.15;;;;;;;14.27;77.18;101431.06;10247254;28;20066;-77
2023/10/04 09:07:24;;;;;;;10.88;5.72;;;;;;;13.87;79.31;101422.53;10249725;28;20505;-78
2023/10/04 09:12:26;;;;;;;14.27;5.90;;;;;;;14.10;78.67;101416.19;10248890;28;20069;-77
2023/10/04 09:17:43;;;;;;;14.30;5.78;;;;;;;14.35;78.09;101423.19;10247856;28;20051;-77
2023/10/04 09:22:46;;;;;;;13.40;5.40;;;;;;;14.29;78.58;101430.91;10244957;28;20137;-78
2023/10/04 09:27:54;;;;;;;14.15;4.90;;;;;;;14.02;77.97;101429.44;10250432;28;21246;-77
2023/10/04 09:32:59;;;;;;;10.95;4.72;;;;;;;14.13;76.86;101425.91;10249304;28;20051;-77
2023/10/04 09:38:16;;;;;;;11.90;5.30;;;;;;;13.94;79.01;101421.94;10247811;28;20054;-76
2023/10/04 09:43:19;;;;;;;10.27;4.60;;;;;;;14.19;76.49;101422.69;10248349;28;20117;-76
2023/10/04 09:48:23;;;;;;;9.93;3.97;;;;;;;14.69;75.58;101417.75;10248630;28;20429;-77
2023/10/04 09:53:26;;;;;;;15.85;4.22;;;;;;;15.16;74.03;101421.06;10246461;28;20057;-77
2023/10/04 09:58:31;;;;;;;14.82;3.83;;;;;;;14.77;74.27;101427.94;10248265;28;20050;-76
2023/10/04 10:03:56;;;;;;;12.32;3.05;;;;;;;15.26;72.50;101426.56;10247749;28;20506;-77
2023/10/04 10:09:04;;;;;;;10.85;3.65;;;;;;;15.29;74.28;101441.69;10247926;28;20055;-76
2023/10/04 10:14:09;;;;;;;13.10;3.55;;;;;;;15.96;68.59;101438.63;10248110;28;20066;-77
2023/10/04 10:19:14;;;;;;;10.35;3.17;;;;;;;15.89;69.82;101440.16;10247649;28;20109;-77
2023/10/04 10:24:17;;;;;;;11.60;3.30;;;;;;;15.85;70.01;101427.84;10245577;28;20065;-77
2023/10/04 10:29:21;;;;;;;8.68;2.67;;;;;;;16.38;68.03;101432.31;10248739;28;20839;-77
2023/10/04 10:34:27;;;;;;;9.35;2.97;;;;;;;15.98;66.77;101428.50;10247526;28;20058;-77
2023/10/04 10:39:30;;;;;;;10.65;3.45;;;;;;;16.47;65.70;101434.19;10246982;28;20050;-78
2023/10/04 10:44:37;;;;;;;10.10;3.47;;;;;;;15.92;68.51;101448.88;10244646;28;20066;-76
2023/10/04 10:49:50;;;;;;;6.13;2.65;;;;;;;16.64;65.51;101438.94;10245785;28;20065;-76
2023/10/04 10:54:54;;;;;;;10.45;3.53;;;;;;;16.71;65.18;101437.41;10245661;28;20177;-77
2023/10/04 11:00:01;;;;;;;8.02;2.60;;;;;;;15.69;66.38;101441.91;10254183;28;20057;-77
2023/10/04 11:05:07;;;;;;;11.18;3.72;;;;;;;16.07;64.62;101434.97;10243991;28;20504;-77
2023/10/04 11:10:15;;;;;;;16.45;3.95;;;;;;;16.25;63.28;101433.34;10246316;28;20057;-77
2023/10/04 11:15:23;;;;;;;14.75;3.47;;;;;;;16.77;61.76;101436.84;10257252;28;20630;-77
2023/10/04 11:20:30;;;;;;;13.15;3.42;;;;;;;16.48;61.70;101419.63;10246475;28;20050;-77
2023/10/04 11:25:34;;;;;;;9.05;3.20;;;;;;;15.61;63.99;101444.41;10242404;28;20116;-77
2023/10/04 11:30:37;;;;;;;7.13;2.97;;;;;;;16.50;61.59;101426.63;10237235;28;20109;-75
2023/10/04 11:35:45;;;;;;;11.00;3.03;;;;;;;16.57;60.73;101402.53;10240596;28;20488;-78
2023/10/04 11:40:52;;;;;;;9.40;3.58;;;;;;;16.59;61.83;101405.94;10243134;28;20050;-77
2023/10/04 11:46:02;;;;;;;9.65;2.92;;;;;;;16.07;63.78;101400.63;10245243;28;20097;-77
2023/10/04 11:51:08;;;;;;;12.38;2.72;;;;;;;16.45;62.32;101399.06;10246918;28;20047;-76
2023/10/04 11:56:11;;;;;;;10.90;3.33;;;;;;;16.74;62.64;101398.28;10252136;28;20042;-77
2023/10/04 12:01:16;;;;;;;7.20;2.83;;;;;;;16.62;61.25;101393.97;10251881;28;20057;-77
2023/10/04 12:06:25;;;;;;;8.07;2.03;;;;;;;15.46;62.98;101400.53;10253287;28;20062;-77
2023/10/04 12:11:33;;;;;;;15.27;2.80;;;;;;;15.72;63.47;101395.56;10252690;28;20137;-77
2023/10/04 12:16:38;;;;;;;9.43;2.80;;;;;;;15.38;64.19;101376.81;10250849;28;20058;-77
2023/10/04 12:21:42;;;;;;;12.90;3.13;;;;;;;15.98;63.22;101389.72;10253983;28;21255;-77
2023/10/04 12:26:46;;;;;;;8.32;2.88;;;;;;;15.59;65.57;101401.19;10248168;28;20047;-76
2023/10/04 12:31:50;;;;;;;9.13;3.33;;;;;;;15.49;66.39;101400.25;10252551;28;20043;-77
2023/10/04 12:36:55;;;;;;;9.02;3.10;;;;;;;16.13;63.44;101391.09;10249458;28;20569;-78
2023/10/04 12:42:01;;;;;;;9.77;3.47;;;;;;;15.53;64.90;101398.16;10250596;28;20051;-77
2023/10/04 12:47:04;;;;;;;8.32;2.45;;;;;;;15.95;63.03;101392.69;10251074;28;20638;-77
2023/10/04 12:52:10;;;;;;;11.20;3.13;;;;;;;16.03;62.05;101380.19;10254376;28;20054;-78
2023/10/04 12:57:13;;;;;;;10.38;3.97;;;;;;;16.28;61.44;101359.06;10255630;28;20050;-77
2023/10/04 13:02:16;;;;;;;13.25;4.07;;;;;;;16.67;59.37;101365.41;10266112;28;20047;-78
2023/10/04 13:07:21;;;;;;;10.63;3.67;;;;;;;17.23;57.95;101356.63;10262992;28;20042;-78
2023/10/04 13:12:24;;;;;;;8.60;3.65;;;;;;;17.04;59.23;101353.88;10261509;28;20054;-78
2023/10/04 13:17:27;;;;;;;10.05;4.20;;;;;;;17.62;57.30;101347.53;10266841;28;20097;-78
2023/10/04 13:22:32;;;;;;;10.07;3.97;;;;;;;17.54;55.36;101367.28;10264385;28;20198;-78
2023/10/04 13:27:35;;;;;;;12.68;4.18;;;;;;;17.90;55.80;101357.44;10270369;28;20054;-78
2023/10/04 13:32:38;;;;;;;10.45;3.53;;;;;;;16.84;57.50;101357.56;10273932;28;20126;-79
2023/10/04 13:37:43;;;;;;;13.82;4.45;;;;;;;16.77;60.54;101351.88;10270180;28;20438;-77
2023/10/04 13:42:47;;;;;;;15.63;5.07;;;;;;;16.11;59.37;101369.53;10269973;28;20051;-78
2023/10/04 13:47:50;;;;;;;11.88;3.80;;;;;;;16.04;60.85;101357.50;10292727;28;20059;-78
2023/10/04 13:52:55;;;;;;;11.57;3.85;;;;;;;16.18;61.94;101355.41;10281374;28;20038;-77
2023/10/04 13:58:00;;;;;;;10.82;4.00;;;;;;;16.31;61.65;101345.22;10312436;28;20102;-78
2023/10/04 14:03:03;;;;;;;7.45;3.60;;;;;;;15.99;61.79;101353.47;10275794;28;20050;-78
2023/10/04 14:08:09;;;;;;;10.90;4.15;;;;;;;16.04;61.68;101349.38;10260591;28;20097;-78
2023/10/04 14:13:12;;;;;;;9.40;3.80;;;;;;;16.43;61.04;101349.53;10265164;28;20390;-78
2023/10/04 14:18:15;;;;;;;10.15;4.70;;;;;;;16.23;60.22;101347.72;10251618;28;20057;-77
2023/10/04 14:23:20;;;;;;;13.95;4.07;;;;;;;16.10;58.89;101329.88;10247882;28;20113;-78
2023/10/04 14:28:23;;;;;;;11.48;4.03;;;;;;;15.90;59.78;101347.88;10256220;28;20057;-77
2023/10/04 14:33:26;;;;;;;8.77;4.10;;;;;;;15.87;61.62;101347.31;10257700;28;20054;-78
2023/10/04 14:38:31;;;;;;;13.15;3.83;;;;;;;15.39;60.51;101345.19;10262320;28;20050;-77
2023/10/04 14:43:35;;;;;;;6.50;2.97;;;;;;;15.27;61.80;101344.34;10259544;28;20054;-77
2023/10/04 14:48:38;;;;;;;13.98;4.03;;;;;;;15.13;62.50;101334.72;10254534;28;20054;-77
2023/10/04 14:53:42;;;;;;;13.20;4.28;;;;;;;15.28;62.80;101327.16;10252928;28;20051;-76
2023/10/04 14:58:45;;;;;;;13.88;4.45;;;;;;;15.53;61.46;101316.94;10248708;28;20058;-76
2023/10/04 15:03:50;;;;;;;9.27;3.75;;;;;;;15.39;60.29;101318.97;10247141;28;20365;-77
2023/10/04 15:08:55;;;;;;;11.73;3.45;;;;;;;15.02;62.02;101319.38;10246639;28;20046;-77
2023/10/04 15:13:59;;;;;;;8.32;3.50;;;;;;;14.94;63.84;101300.25;10244984;28;20047;-77
2023/10/04 15:19:02;;;;;;;11.32;3.88;;;;;;;15.22;61.16;101306.88;10240859;28;20054;-77
2023/10/04 15:24:14;;;;;;;7.25;3.10;;;;;;;15.00;60.94;101304.28;10248269;28;20081;-77
2023/10/04 15:29:17;;;;;;;8.15;3.25;;;;;;;15.35;61.56;101308.53;10247403;28;20058;-77
2023/10/04 15:34:19;;;;;;;10.32;3.75;;;;;;;15.35;61.90;101303.97;10256686;28;20403;-77
2023/10/04 15:39:29;;;;;;;11.50;3.72;;;;;;;15.31;61.80;101298.97;10262350;28;20050;-77
2023/10/04 15:44:33;;;;;;;6.25;3.53;;;;;;;15.13;62.69;101294.13;10267082;28;20047;-77
2023/10/04 15:49:36;;;;;;;12.73;3.72;;;;;;;15.22;62.53;101293.34;10269059;28;20823;-77
2023/10/04 15:54:41;;;;;;;8.32;3.80;;;;;;;15.06;63.17;101284.84;10265616;28;21580;-77
2023/10/04 15:59:44;;;;;;;11.77;4.60;;;;;;;15.04;64.04;101281.41;10265275;28;20054;-78
2023/10/04 16:04:47;;;;;;;10.15;4.38;;;;;;;15.04;64.29;101275.97;10266207;28;20042;-78
2023/10/04 16:09:52;;;;;;;11.73;4.53;;;;;;;14.94;64.74;101277.75;10260657;28;20042;-77
2023/10/04 16:14:55;;;;;;;9.57;4.80;;;;;;;14.91;65.91;101280.72;10265358;28;20520;-77
2023/10/04 16:19:58;;;;;;;11.32;4.88;;;;;;;14.77;65.86;101280.03;10266578;28;20513;-77
2023/10/04 16:25:02;;;;;;;13.43;4.78;;;;;;;14.81;66.66;101272.56;10255603;28;21324;-77
2023/10/04 16:30:06;;;;;;;10.95;4.28;;;;;;;14.38;67.54;101278.81;10251200;28;20054;-77
2023/10/04 16:35:13;;;;;;;11.68;4.35;;;;;;;14.35;67.08;101285.34;10251407;28;20048;-76
2023/10/04 16:40:19;;;;;;;11.35;5.03;;;;;;;14.15;67.79;101286.09;10252937;28;20142;-76
2023/10/04 16:45:23;;;;;;;12.52;5.95;;;;;;;14.01;68.25;101280.97;10251978;28;20055;-77
2023/10/04 16:50:27;;;;;;;14.23;5.13;;;;;;;14.03;68.43;101287.13;10253328;28;20421;-77
2023/10/04 16:55:31;;;;;;;14.25;5.57;;;;;;;14.29;67.35;101284.97;10258818;28;20399;-76
2023/10/04 17:00:34;;;;;;;7.68;4.43;;;;;;;14.25;67.89;101284.38;10259274;28;20621;-77
2023/10/04 17:05:38;;;;;;;14.48;4.95;;;;;;;14.35;67.31;101279.09;10250401;28;20050;-77
2023/10/04 17:10:42;;;;;;;11.93;5.15;;;;;;;14.15;67.69;101278.00;10251096;28;20057;-78
2023/10/04 17:15:45;;;;;;;11.85;5.25;;;;;;;14.21;67.59;101274.81;10248265;28;20430;-78
2023/10/04 17:20:49;;;;;;;12.13;5.13;;;;;;;13.75;68.50;101283.09;10247609;28;20687;-78
2023/10/04 17:25:53;;;;;;;12.05;5.10;;;;;;;13.98;68.07;101279.38;10246769;28;20057;-78
2023/10/04 17:30:56;;;;;;;13.00;5.00;;;;;;;14.02;67.52;101271.91;10250897;28;20711;-77
2023/10/04 17:35:59;;;;;;;13.48;4.53;;;;;;;13.80;68.42;101270.09;10249251;28;20508;-77
2023/10/04 17:41:04;;;;;;;14.10;5.75;;;;;;;13.62;68.76;101283.22;10249449;28;20066;-77
2023/10/04 17:46:07;;;;;;;11.15;4.28;;;;;;;13.59;69.14;101284.31;10247643;28;20100;-76
2023/10/04 17:51:10;;;;;;;13.23;5.18;;;;;;;13.96;68.21;101294.00;10249398;28;20050;-76
2023/10/04 17:56:14;;;;;;;11.40;4.65;;;;;;;13.83;68.81;101281.50;10247662;28;20050;-76
2023/10/04 18:01:17;;;;;;;10.68;4.03;;;;;;;13.33;70.28;101289.06;10248984;28;20062;-74
2023/10/04 18:06:20;;;;;;;13.48;4.85;;;;;;;13.59;70.47;101288.88;10250300;28;20189;-77
2023/10/04 18:11:26;;;;;;;11.38;5.55;;;;;;;13.71;69.85;101286.06;10245228;28;20046;-77
2023/10/04 18:16:29;;;;;;;9.38;4.80;;;;;;;13.48;71.02;101290.56;10250444;28;20114;-78
2023/10/04 18:21:32;;;;;;;9.90;4.60;;;;;;;13.47;71.31;101293.41;10255688;28;20057;-78
2023/10/04 18:26:37;;;;;;;12.13;5.55;;;;;;;13.35;71.54;101295.19;10263695;28;20101;-78
2023/10/04 18:31:41;;;;;;;10.77;5.07;;;;;;;13.48;71.58;101298.66;10261442;28;20082;-78
2023/10/04 18:36:45;;;;;;;18.25;5.40;;;;;;;13.16;72.69;101317.34;10252347;28;20054;-79
2023/10/04 18:41:49;;;;;;;13.35;5.47;;;;;;;13.35;72.09;101307.81;10248924;28;20106;-77
2023/10/04 18:46:52;;;;;;;18.17;6.65;;;;;;;13.51;71.38;101307.50;10250184;28;20172;-77
2023/10/04 18:51:55;;;;;;;14.93;5.05;;;;;;;13.26;71.76;101314.78;10251231;28;20046;-79
2023/10/04 18:57:00;;;;;;;16.30;4.97;;;;;;;13.25;71.84;101310.41;10249453;28;20090;-77
2023/10/04 19:02:03;;;;;;;12.18;4.85;;;;;;;13.13;72.77;101314.03;10249150;28;20051;-80
2023/10/04 19:07:07;;;;;;;16.90;5.55;;;;;;;13.31;72.26;101314.44;10249946;28;20051;-77
2023/10/04 19:12:12;;;;;;;12.40;4.63;;;;;;;13.18;73.04;101310.00;10259578;28;20607;-76
2023/10/04 19:17:15;;;;;;;14.05;5.88;;;;;;;13.08;73.36;101305.41;10258001;28;20050;-76
2023/10/04 19:22:18;;;;;;;11.75;4.80;;;;;;;13.00;74.33;101303.31;10257448;28;20055;-78
2023/10/04 19:27:23;;;;;;;12.02;5.18;;;;;;;12.87;75.10;101305.25;10256815;28;20049;-78
2023/10/04 19:32:26;;;;;;;16.15;6.05;;;;;;;12.91;75.02;101302.19;10258877;28;21278;-77
2023/10/04 19:37:29;;;;;;;13.60;5.25;;;;;;;13.01;74.55;101289.72;10267030;28;20046;-77
2023/10/04 19:42:33;;;;;;;11.88;5.25;;;;;;;12.98;74.85;101275.63;10271187;28;20046;-78
2023/10/04 19:47:37;;;;;;;12.35;4.88;;;;;;;12.51;77.12;101282.78;10268520;28;20046;-76
2023/10/04 19:52:40;;;;;;;16.58;4.85;;;;;;;12.67;76.17;101283.38;10264660;28;20105;-77
2023/10/04 19:57:45;;;;;;;11.07;4.53;;;;;;;12.58;76.98;101267.88;10269662;28;20062;-76
2023/10/04 20:02:50;;;;;;;16.30;4.82;;;;;;;12.76;76.14;101268.31;10270718;28;20537;-78
2023/10/04 20:07:53;;;;;;;13.45;4.75;;;;;;;12.68;76.48;101251.88;10262049;28;20169;-77
2023/10/04 20:12:58;;;;;;;11.82;5.18;;;;;;;12.55;77.21;101263.56;10269448;28;20078;-77
2023/10/04 20:18:01;;;;;;;14.00;4.82;;;;;;;12.56;77.52;101254.53;10266318;28;20109;-78
2023/10/04 20:23:04;;;;;;;13.57;4.43;;;;;;;12.58;77.52;101246.31;10255690;28;20818;-77
2023/10/04 20:28:09;;;;;;;15.10;4.72;;;;;;;12.52;77.89;101236.84;10256363;28;20864;-77
2023/10/04 20:33:12;;;;;;;15.55;4.43;;;;;;;12.44;78.32;101217.72;10255978;28;20054;-76
2023/10/04 20:38:15;;;;;;;11.38;4.93;;;;;;;12.43;78.63;101207.91;10259751;28;20045;-77
2023/10/04 20:43:21;;;;;;;21.73;4.93;;;;;;;12.34;79.05;101205.91;10254142;28;20049;-77
2023/10/04 20:48:24;;;;;;;16.60;5.00;;;;;;;12.44;78.62;101215.00;10255035;28;20133;-77
2023/10/04 20:53:27;;;;;;;12.20;4.70;;;;;;;12.37;79.06;101214.63;10263879;28;20047;-76
2023/10/04 20:58:32;;;;;;;12.60;4.38;;;;;;;12.40;79.08;101213.53;10263895;28;21264;-76
2023/10/04 21:03:35;;;;;;;15.43;4.57;;;;;;;12.30;79.59;101220.59;10255527;28;20055;-77
2023/10/04 21:08:39;;;;;;;11.60;3.83;;;;;;;11.99;81.30;101208.53;10254196;28;20105;-78
2023/10/04 21:13:44;;;;;;;13.18;4.68;;;;;;;12.09;81.53;101206.84;10250049;28;20590;-76
2023/10/04 21:18:48;;;;;;;11.32;4.35;;;;;;;12.12;81.20;101202.13;10249491;28;20054;-78
2023/10/04 21:23:52;;;;;;;13.73;5.25;;;;;;;12.14;81.08;101205.53;10253847;28;20134;-77
2023/10/04 21:28:56;;;;;;;17.13;4.55;;;;;;;12.07;81.80;101193.53;10250717;28;20039;-78
2023/10/04 21:34:07;;;;;;;17.35;5.03;;;;;;;12.16;81.40;101184.75;10249804;28;20127;-78
2023/10/04 21:39:12;;;;;;;12.07;4.20;;;;;;;11.99;82.38;101176.22;10249990;28;20043;-77
2023/10/04 21:44:16;;;;;;;14.32;4.50;;;;;;;12.04;82.44;101172.22;10245498;28;20154;-76
2023/10/04 21:49:20;;;;;;;12.63;4.18;;;;;;;12.09;82.04;101169.16;10252508;28;20054;-76
2023/10/04 21:54:23;;;;;;;11.70;4.53;;;;;;;12.11;82.10;101156.44;10250140;28;20054;-77
2023/10/04 21:59:27;;;;;;;10.45;4.45;;;;;;;12.15;82.38;101155.25;10249230;28;20039;-78
2023/10/04 22:04:31;;;;;;;11.90;4.57;;;;;;;12.16;82.28;101155.13;10248684;28;20050;-76
2023/10/04 22:09:38;;;;;;;15.40;4.65;;;;;;;12.10;82.80;101160.13;10249350;28;20043;-79
2023/10/04 22:14:44;;;;;;;11.25;4.18;;;;;;;11.93;83.17;101172.16;10248323;28;20050;-76
2023/10/04 22:19:47;;;;;;;11.88;3.85;;;;;;;12.15;82.46;101150.72;10249370;28;20055;-76
2023/10/04 22:24:50;;;;;;;15.75;4.68;;;;;;;12.00;82.83;101146.47;10246319;28;20617;-75
2023/10/04 22:30:13;;;;;;;14.93;4.55;;;;;;;12.13;83.00;101139.19;10247632;28;20054;-78
2023/10/04 22:35:19;;;;;;;19.42;5.65;;;;;;;12.19;82.58;101139.69;10244696;28;20047;-77
2023/10/04 22:40:26;;;;;;;15.57;5.35;;;;;;;12.20;82.63;101146.78;10252137;28;20073;-77
2023/10/04 22:45:31;;;;;;;15.80;4.55;;;;;;;12.14;83.10;101151.66;10245117;28;20083;-76
2023/10/04 22:50:35;;;;;;;16.73;4.85;;;;;;;12.02;83.46;101147.22;10245494;28;20058;-77
2023/10/04 22:55:38;;;;;;;18.15;5.20;;;;;;;11.91;84.17;101150.72;10247744;28;20533;-78
2023/10/04 23:00:42;;;;;;;15.95;4.78;;;;;;;11.93;84.42;101151.47;10245292;28;20050;-76
2023/10/04 23:05:53;;;;;;;10.57;4.63;;;;;;;11.98;84.30;101139.47;10246105;28;20573;-76
2023/10/04 23:10:56;;;;;;;16.17;5.53;;;;;;;12.03;83.83;101124.69;10247174;28;21030;-76